createdAt,value
2018-04-30T00:01:30.704Z,11.27
2018-04-30T00:05:34.067Z,11.87
2018-04-30T00:09:42.156Z,10.33
2018-04-30T00:13:48.965Z,10.80
2018-04-30T00:17:51.512Z,10.70
2018-04-30T00:21:54.051Z,10.70
2018-04-30T00:25:56.576Z,8.77
2018-04-30T00:29:59.852Z,10.30
2018-04-30T00:34:02.382Z,10.00
2018-04-30T00:38:04.906Z,10.73
2018-04-30T00:42:07.439Z,13.03
2018-04-30T00:46:09.975Z,9.87
2018-04-30T00:50:12.482Z,10.77
2018-04-30T00:54:26.920Z,15.30
2018-04-30T00:58:29.483Z,8.37
2018-04-30T01:02:32.006Z,17.10
2018-04-30T01:06:34.535Z,10.77
2018-04-30T01:10:37.819Z,13.43
2018-04-30T01:14:41.111Z,10.53
2018-04-30T01:18:43.638Z,13.03
2018-04-30T01:22:46.156Z,9.57
2018-04-30T01:26:48.687Z,13.40
2018-04-30T01:30:51.207Z,11.17
2018-04-30T01:34:53.734Z,13.47
2018-04-30T01:38:57.032Z,15.60
2018-04-30T01:42:59.560Z,12.23
2018-04-30T01:47:02.089Z,9.23
2018-04-30T01:51:04.615Z,11.87
2018-04-30T01:55:07.127Z,12.63
2018-04-30T01:59:09.650Z,12.40
2018-04-30T02:03:12.187Z,11.83
2018-04-30T02:07:14.723Z,10.60
2018-04-30T02:11:17.257Z,11.20
2018-04-30T02:15:19.776Z,12.13
2018-04-30T02:19:22.314Z,11.17
2018-04-30T02:23:24.843Z,13.47
2018-04-30T02:27:27.367Z,12.43
2018-04-30T02:31:30.667Z,11.50
2018-04-30T02:35:33.945Z,12.20
2018-04-30T02:39:36.481Z,11.67
2018-04-30T02:43:39.037Z,10.40
2018-04-30T02:47:41.593Z,13.23
2018-04-30T02:51:44.108Z,26.07
2018-04-30T02:55:46.643Z,16.43
2018-04-30T02:59:49.168Z,12.97
2018-04-30T03:03:52.468Z,14.47
2018-04-30T03:07:55.775Z,17.23
2018-04-30T03:11:58.316Z,11.70
2018-04-30T03:16:00.831Z,11.83
2018-04-30T03:20:03.358Z,12.43
2018-04-30T03:24:06.672Z,13.87
2018-04-30T03:28:09.207Z,16.43
2018-04-30T03:32:11.738Z,16.37
2018-04-30T03:36:14.251Z,14.77
2018-04-30T03:40:16.787Z,13.30
2018-04-30T03:44:19.311Z,19.87
2018-04-30T03:48:21.847Z,12.40
2018-04-30T03:52:25.144Z,15.93
2018-04-30T03:56:28.449Z,15.97
2018-04-30T04:00:43.491Z,17.70
2018-04-30T04:04:57.898Z,13.03
2018-04-30T04:09:01.192Z,12.30
2018-04-30T04:13:04.495Z,14.77
2018-04-30T04:17:07.795Z,12.17
2018-04-30T04:21:11.068Z,13.70
2018-04-30T04:25:13.598Z,13.60
2018-04-30T04:29:16.134Z,14.03
2018-04-30T04:33:18.659Z,16.40
2018-04-30T04:37:21.960Z,15.40
2018-04-30T04:41:24.479Z,14.77
2018-04-30T04:45:27.011Z,15.87
2018-04-30T04:49:29.543Z,14.40
2018-04-30T04:53:32.076Z,16.53
2018-04-30T04:57:34.613Z,16.67
2018-04-30T05:01:37.137Z,15.83
2018-04-30T05:05:39.674Z,15.40
2018-04-30T05:09:42.205Z,16.50
2018-04-30T05:13:44.740Z,18.00
2018-04-30T05:17:47.282Z,15.80
2018-04-30T05:21:49.810Z,16.10
2018-04-30T05:25:52.355Z,17.40
2018-04-30T05:29:54.883Z,17.40
2018-04-30T05:33:57.512Z,16.23
2018-04-30T05:38:00.742Z,18.00
2018-04-30T05:42:04.029Z,18.10
2018-04-30T05:46:06.563Z,16.50
2018-04-30T05:50:09.094Z,16.97
2018-04-30T05:54:11.629Z,18.77
2018-04-30T05:58:14.158Z,17.17
2018-04-30T06:02:16.671Z,19.67
2018-04-30T06:06:19.976Z,21.30
2018-04-30T06:10:23.287Z,16.20
2018-04-30T06:14:25.823Z,15.43
2018-04-30T06:18:29.135Z,15.10
2018-04-30T06:22:31.643Z,15.43
2018-04-30T06:26:35.870Z,31.10
2018-04-30T06:30:38.423Z,15.27
2018-04-30T06:34:40.959Z,16.10
2018-04-30T06:38:44.239Z,17.53
2018-04-30T08:00:29.643Z,2.90
2018-04-30T08:04:32.198Z,5.97
2018-04-30T08:08:34.813Z,4.13
2018-04-30T08:12:37.396Z,2.77
2018-04-30T08:16:39.922Z,2.97
2018-04-30T08:20:42.458Z,3.00
2018-04-30T08:24:45.751Z,3.30
2018-04-30T08:28:49.106Z,4.80
2018-04-30T08:32:51.625Z,2.50
2018-04-30T08:36:54.930Z,2.73
2018-04-30T08:40:57.454Z,1.83
2018-04-30T08:45:00.043Z,2.77
2018-04-30T08:49:02.530Z,1.43
2018-04-30T08:53:05.050Z,1.90
2018-04-30T08:57:07.583Z,2.63
2018-04-30T09:01:10.123Z,5.60
2018-04-30T09:05:12.657Z,1.10
2018-04-30T09:09:15.184Z,0.60
2018-04-30T09:13:17.703Z,1.23
2018-04-30T09:17:20.247Z,0.60
2018-04-30T09:21:22.914Z,1.50
2018-04-30T09:25:25.574Z,1.23
2018-04-30T09:29:28.115Z,1.57
2018-04-30T09:33:30.639Z,1.87
2018-04-30T09:37:33.943Z,4.57
2018-04-30T09:41:37.275Z,0.97
2018-04-30T09:45:39.819Z,4.27
2018-04-30T09:49:43.427Z,0.60
2018-04-30T09:53:46.727Z,0.80
2018-04-30T09:57:49.339Z,9.73
2018-04-30T10:01:51.807Z,3.53
2018-04-30T10:05:55.103Z,2.27
2018-04-30T10:09:58.404Z,0.77
2018-04-30T10:14:01.718Z,1.00
2018-04-30T10:18:04.232Z,1.70
2018-04-30T10:22:06.768Z,0.70
2018-04-30T10:26:09.302Z,3.20
2018-04-30T10:30:11.837Z,1.33
2018-04-30T10:34:14.370Z,0.97
2018-04-30T10:38:17.663Z,0.80
2018-04-30T10:42:20.197Z,0.80
2018-04-30T10:46:22.729Z,1.63
2018-04-30T10:50:25.263Z,0.80
2018-04-30T10:54:27.803Z,3.83
2018-04-30T10:58:30.318Z,1.90
2018-04-30T11:02:32.913Z,3.30
2018-04-30T11:06:35.402Z,1.10
2018-04-30T11:10:37.928Z,1.17
2018-04-30T11:14:40.509Z,5.40
2018-04-30T11:18:43.789Z,3.30
2018-04-30T11:22:46.324Z,1.93
2018-04-30T11:26:49.192Z,2.73
2018-04-30T11:30:51.972Z,1.00
2018-04-30T11:34:54.553Z,0.80
2018-04-30T11:38:57.843Z,2.00
2018-04-30T11:43:00.386Z,1.70
2018-04-30T11:47:04.097Z,2.23
2018-04-30T11:51:06.603Z,1.53
2018-04-30T11:55:09.154Z,1.53
2018-04-30T11:59:11.680Z,1.97
2018-04-30T12:03:14.219Z,1.47
2018-04-30T12:07:16.758Z,2.00
2018-04-30T12:11:19.302Z,1.73
2018-04-30T12:15:21.851Z,1.80
2018-04-30T12:19:26.380Z,3.50
2018-04-30T12:23:29.702Z,1.17
2018-04-30T12:27:32.248Z,1.00
2018-04-30T12:31:34.807Z,1.17
2018-04-30T12:35:37.347Z,0.80
2018-04-30T12:39:39.899Z,1.20
2018-04-30T12:43:43.119Z,1.93
2018-04-30T12:47:46.428Z,2.73
2018-04-30T12:51:48.966Z,0.63
2018-04-30T12:55:51.524Z,2.60
2018-04-30T12:59:54.068Z,0.73
2018-04-30T13:03:56.592Z,3.73
2018-04-30T13:07:59.150Z,2.33
2018-04-30T13:12:01.700Z,4.97
2018-04-30T13:16:04.246Z,3.63
2018-04-30T13:20:06.783Z,1.00
2018-04-30T13:24:09.287Z,1.67
2018-04-30T13:28:12.589Z,2.43
2018-04-30T13:32:15.115Z,1.00
2018-04-30T13:36:17.658Z,1.20
2018-04-30T13:40:20.958Z,1.33
2018-04-30T13:44:23.488Z,2.27
2018-04-30T13:48:26.044Z,4.33
2018-04-30T13:52:29.344Z,1.67
2018-04-30T13:56:32.715Z,6.83
2018-04-30T14:00:35.238Z,2.63
2018-04-30T14:04:38.528Z,1.63
2018-04-30T14:08:41.079Z,4.10
2018-04-30T14:12:43.612Z,2.03
2018-04-30T14:16:46.142Z,3.03
2018-04-30T14:20:48.680Z,2.17
2018-04-30T14:24:51.210Z,1.97
2018-04-30T14:28:53.763Z,3.03
2018-04-30T14:32:56.342Z,4.10
2018-04-30T14:36:58.875Z,1.73
2018-04-30T14:41:01.411Z,4.73
2018-04-30T14:45:03.927Z,1.60
2018-04-30T14:49:06.461Z,10.97
2018-04-30T14:53:09.772Z,1.13
2018-04-30T14:57:13.072Z,6.40
2018-04-30T15:01:16.372Z,7.57
2018-04-30T15:05:19.650Z,4.70
2018-04-30T15:09:22.182Z,3.97
2018-04-30T15:13:24.735Z,2.67
2018-04-30T15:17:27.255Z,2.37
2018-04-30T15:21:29.802Z,14.47
2018-04-30T15:25:32.342Z,0.97
2018-04-30T15:29:34.855Z,2.87
2018-04-30T15:33:37.391Z,2.97
2018-04-30T15:37:39.934Z,4.67
2018-04-30T15:41:42.467Z,1.03
2018-04-30T15:45:45.009Z,0.87
2018-04-30T15:49:47.533Z,1.40
2018-04-30T15:53:50.084Z,3.17
2018-04-30T15:57:53.391Z,3.43
2018-04-30T16:01:56.691Z,5.00
2018-04-30T16:05:59.223Z,6.47
2018-04-30T16:10:01.734Z,1.80
2018-04-30T16:14:04.274Z,4.17
2018-04-30T16:18:06.820Z,3.27
2018-04-30T16:22:09.367Z,4.43
2018-04-30T16:26:11.908Z,3.10
2018-04-30T16:30:15.189Z,1.10
2018-04-30T16:34:17.723Z,1.00
2018-04-30T16:38:20.254Z,3.93
2018-04-30T16:42:24.074Z,2.73
2018-04-30T16:46:26.607Z,3.50
2018-04-30T16:50:29.156Z,2.40
2018-04-30T16:54:31.691Z,3.60
2018-04-30T16:58:34.320Z,7.17
2018-04-30T17:02:36.861Z,1.60
2018-04-30T17:06:39.411Z,2.73
2018-04-30T17:10:42.712Z,1.13
2018-04-30T17:14:46.015Z,8.40
2018-04-30T17:18:49.295Z,2.23
2018-04-30T17:22:51.828Z,4.83
2018-04-30T17:26:54.396Z,1.07
2018-04-30T17:30:56.928Z,2.83
2018-04-30T17:34:59.473Z,0.70
2018-04-30T17:39:02.074Z,1.57
2018-04-30T17:43:04.583Z,1.70
2018-04-30T17:47:07.131Z,4.27
2018-04-30T17:51:09.663Z,2.27
2018-04-30T17:55:12.197Z,4.63
2018-04-30T17:59:14.748Z,0.50
2018-04-30T18:03:17.259Z,2.70
2018-04-30T18:07:19.798Z,3.50
2018-04-30T18:11:22.340Z,0.97
2018-04-30T18:15:24.929Z,2.43
2018-04-30T18:19:27.463Z,1.23
2018-04-30T18:23:30.146Z,1.70
2018-04-30T18:27:32.688Z,2.47
2018-04-30T18:31:35.218Z,2.10
2018-04-30T18:35:37.755Z,1.17
2018-04-30T18:39:40.340Z,3.50
2018-04-30T18:43:42.911Z,1.27
2018-04-30T18:47:46.208Z,0.80
2018-04-30T18:51:49.502Z,0.77
2018-04-30T18:55:52.803Z,0.50
2018-04-30T18:59:56.096Z,0.50
2018-04-30T19:03:59.388Z,1.20
2018-04-30T19:08:01.969Z,1.00
2018-04-30T19:12:04.475Z,0.80
2018-04-30T19:16:07.782Z,0.50
2018-04-30T19:20:10.336Z,0.83
2018-04-30T19:24:12.849Z,0.47
2018-04-30T19:28:17.415Z,1.00
2018-04-30T19:32:19.951Z,0.50
2018-04-30T19:36:24.666Z,1.30
2018-04-30T19:40:27.194Z,1.50
2018-04-30T19:44:33.364Z,2.67
2018-04-30T19:48:37.722Z,0.93
2018-04-30T19:52:40.267Z,0.40
2018-04-30T19:56:43.703Z,0.50
2018-04-30T20:00:48.515Z,0.47
2018-04-30T20:04:51.790Z,0.77
2018-04-30T20:08:54.520Z,0.43
2018-04-30T20:12:58.824Z,2.97
2018-04-30T20:17:01.359Z,4.27
2018-04-30T20:21:03.894Z,2.80
2018-04-30T20:25:06.612Z,1.13
2018-04-30T20:29:09.150Z,0.63
2018-04-30T20:33:11.690Z,0.50
2018-04-30T20:37:14.225Z,1.63
2018-04-30T20:41:16.746Z,1.23
2018-04-30T20:45:20.031Z,0.60
2018-04-30T20:49:22.580Z,0.40
2018-04-30T20:53:25.113Z,3.07
2018-04-30T20:57:27.663Z,2.27
2018-04-30T21:01:30.199Z,2.27
2018-04-30T21:05:32.707Z,0.80
2018-04-30T21:09:35.244Z,0.70
2018-04-30T21:13:38.553Z,0.63
2018-04-30T21:17:41.940Z,0.50
2018-04-30T21:21:44.404Z,1.97
2018-04-30T21:25:46.927Z,3.30
2018-04-30T21:29:49.464Z,0.97
2018-04-30T21:33:51.992Z,0.77
2018-04-30T21:37:55.288Z,0.60
2018-04-30T21:41:57.823Z,0.60
2018-04-30T21:46:00.362Z,1.17
2018-04-30T21:50:03.719Z,1.37
2018-04-30T21:54:06.254Z,1.03
2018-04-30T21:58:09.548Z,1.27
2018-04-30T22:02:12.059Z,0.53
2018-04-30T22:06:14.592Z,0.60
2018-04-30T22:10:17.120Z,0.67
2018-04-30T22:14:20.420Z,0.97
2018-04-30T22:18:23.706Z,1.90
2018-04-30T22:22:26.207Z,1.70
2018-04-30T22:26:29.500Z,1.80
2018-04-30T22:30:32.792Z,3.37
2018-04-30T22:34:35.327Z,5.40
2018-04-30T22:38:37.868Z,4.47
2018-04-30T22:42:41.166Z,6.13
2018-04-30T22:46:43.693Z,7.77
2018-04-30T22:50:46.250Z,2.03
2018-04-30T22:54:49.531Z,7.47
2018-04-30T22:58:52.107Z,4.43
2018-04-30T23:02:54.634Z,3.37
2018-04-30T23:06:57.159Z,0.70
2018-04-30T23:10:59.688Z,3.53
2018-04-30T23:15:02.981Z,3.83
2018-04-30T23:19:05.551Z,7.10
2018-04-30T23:23:08.096Z,2.20
2018-04-30T23:27:10.599Z,1.20
2018-04-30T23:31:13.138Z,1.00
2018-04-30T23:35:15.671Z,3.37
2018-04-30T23:39:18.198Z,2.23
2018-04-30T23:43:21.495Z,0.63
2018-04-30T23:47:24.776Z,4.77
2018-04-30T23:51:27.302Z,0.50
2018-04-30T23:55:29.831Z,5.83
2018-04-30T23:59:32.357Z,1.27
